ROMMA est une association bénévole à but non lucratif. Votre soutien est indispensable : ADHERER à ROMMA ou FAIRE un DON

Taninges - (74, Haute-Savoie)

Vallée du Giffre (635 m)   Longitude: 06° 35' 38" E   Latitude: 46° 06' 21" N Station romma n°98
 

Détail journalier du     <<     >>

Température Precipitation Humidité Pression Vent Dir Rafale Dir. rafale Ensol.
Heure (°C) (mm) (%) (hPa) (km/h) (km/h) (min)
01:00 9.409610121ESE5NE0
02:00 9.3096101202ONO0
03:00 9.209610121ONO3ONO0
04:00 9.1096101202ONO0
05:00 9.2097101202ONO0
06:00 9.20.297101203ONO0
07:00 9.3097101203ONO0
08:00 9.609710131ONO3ONO0
09:00 10.409710131ONO3ONO0
10:00 11.109510131SO5SSO0
11:00 13.208610133ENE8SSE30
12:00 13.708110133SO8ONO0
13:00 15.907110124NO15OSO30
14:00 15.906910124ONO16ONO15
15:00 16.606510125O16SO5
16:00 15.906010125SE18SE5
17:00 16.106010137E23ESE20
18:00 15.606010138ENE26E0
19:00 14.706210139ENE31NE0
20:00 14.706110148ENE26NE0
21:00 12.907110143E15E0
22:00 11.407910152NNE8NNE0
23:00 10.208410161ESE5ESE0
minuit 8.0090101605S0

Graphique du 21-05-2019

 

Serveur OMMA